메인 페이지
METAR-TAF:

METAR-TAF

공항 :

Bobby L. Chain Municipal Airport

Hattiesburg, 미시시피, 미국

위도: 31-15-54N, 경도: 089-15-11W, 고도: 46m

현재 날씨관측

예보는 20분 전, 00:53시(UTC)에 발표되었습니다.
무풍
온도 29°C
습도 74%
기압 1016 hPa
시정: 16.1km
맑음

METAR: KHBG 150053Z AUTO 00000KT 10SM CLR 29/24 A2999 RMK AO2 SLP151 T02890244 TSNO

시각: 20:13 (01:13 UTC)

예보

예보는 1 시간 53분 전, 23:20시(UTC)에 발표되었습니다.
예보 대상 시간: 15일 00시부터 15일 24시까지 (UTC)
여러 방향의 바람 3kt
시정: 9.7km
고도 5000ft 상공 구름 조금
고도 25000ft 상공 구름 조금
연무

TAF: KHBG 142320Z 1500/1524 VRB03KT 6SM HZ FEW050 FEW250

4,000개 이상의 공항 관측 자료 및 예보 (METAR 및 TAF 보고).

지도상에서 검색 가능한 기상관측소가 노란 점과 빨간 점으로 표시되어 있습니다.

기상관측소 명을 보려면 표시 위로 마우스를 이동하세요.

날씨 관측과 예보를 보려면 클릭하세요.

지도 변경 : 확대하려면 엑스 표시가 있는 녹색 버튼, 축소하려면 빼기 표시가 있는 녹색 버튼, 다음 페이지의 지도를 보려면 녹색 화살표를 클릭하세요.


METAR-TAF: